Strona główna
METAR-TAF:

METAR-TAF

Lotnisko :

Port lotniczy Ryga

Ryga, Łotwa

Szerokość geograficzna: 56-55N, Długość geograficzna: 023-58E, wysokość: 10 m

Aktualna obserwacja pogody

Raport powstał 10 minut temu, godzina 11:50 UTC
Wiatr 9 kt od południe
Temperatura 17°C
Wilgotność 59%
Ciśnienie 1021 hPa
Widzialność 10 km lub więcej
Brak chmur poniżej 1500 m i brak chmur cumulonimbus

METAR: EVRA 161150Z 18009KT CAVOK 17/09 Q1021 R18/090095 NOSIG

czas: 15:00 (12:00 UTC)

Prognoza

Raport powstał 58 minut temu, godzina 11:02 UTC
Prognoza ważna od 16 godzina 12 UTC do 17 godzina 12 UTC
Wiatr 6 kt od południe
Widzialność 10 km lub więcej
Brak chmur poniżej 1500 m i brak chmur cumulonimbus
Prawdopodobieństwo 40% :
Przejściowo
od 17 godzina 00 UTC do 17 godzina 06 UTC
Widzialność: 0600 m
Przerywane chmury na wysokości 100 ft
mgła

TAF: EVRA 161102Z 1612/1712 17006KT CAVOK PROB40 TEMPO 1700/1706 0600 FG BKN001

Obserwacja i prognoza pogody dla ponad 4000 lotnisk (raport METAR i TAF).

Dostępne stacje oznaczono żółtymi i czerwonymi punktami na mapie.

Najedź kursorem aby zobaczyć nazwę stacji.

Kliknij aby zobaczyć obserwacje i prognozy pogody.

Aby zmienić mapę: kliknij na zielony przycisk z czarnym krzyżykiem, aby powiększyć; na zielony przycisk z myślnikiem, aby pomniejszyć; na zielone strzałki, aby przejść do map sąsiednich.


METAR-TAF: